createdAt,value
2022-12-27T09:27:50.149Z,8.17
2022-12-27T09:29:52.939Z,8.17
2022-12-27T09:31:55.324Z,7.79
2022-12-27T09:33:58.841Z,7.91
2022-12-27T09:36:06.393Z,7.93
2022-12-27T09:38:08.729Z,7.97
2022-12-27T09:40:16.352Z,8.02
2022-12-27T09:42:57.701Z,8.06
2022-12-27T09:45:12.703Z,7.92
2022-12-27T09:47:32.990Z,7.90
2022-12-27T09:49:43.454Z,7.86
2022-12-27T09:51:50.541Z,7.73
2022-12-27T09:54:09.950Z,7.80
2022-12-27T09:56:22.991Z,7.76
2022-12-27T09:58:51.671Z,7.73
2022-12-27T10:00:54.020Z,7.71
2022-12-27T10:02:58.347Z,7.64
2022-12-27T10:05:19.955Z,7.63
2022-12-27T10:07:44.935Z,7.61
2022-12-27T10:09:57.075Z,7.53
2022-12-27T10:12:14.366Z,7.49
2022-12-27T10:14:41.709Z,7.43
2022-12-27T10:16:53.366Z,7.43
2022-12-27T10:19:11.069Z,7.40
2022-12-27T10:21:16.380Z,7.46
2022-12-27T10:23:28.952Z,7.37
2022-12-27T10:25:31.564Z,7.43
2022-12-27T10:27:34.029Z,7.36
2022-12-27T10:29:37.065Z,7.34
2022-12-27T10:31:42.819Z,7.43
2022-12-27T10:33:47.695Z,7.34
2022-12-27T10:35:50.541Z,7.38
2022-12-27T10:37:54.111Z,7.37
2022-12-27T10:40:19.255Z,7.42
2022-12-27T10:42:37.303Z,7.44
2022-12-27T10:44:39.728Z,7.41
2022-12-27T10:46:44.836Z,7.45
2022-12-27T10:49:20.222Z,7.32
2022-12-27T10:51:18.036Z,7.17
2022-12-27T10:53:38.563Z,7.31
2022-12-27T10:55:41.243Z,7.25
2022-12-27T10:57:43.884Z,7.27
2022-12-27T10:59:46.277Z,7.19
2022-12-27T11:02:11.581Z,7.30
2022-12-27T11:04:20.105Z,7.27
2022-12-27T11:06:26.114Z,7.38
2022-12-27T11:08:29.995Z,7.46
2022-12-27T11:10:32.560Z,7.49
2022-12-27T11:12:36.252Z,7.47
2022-12-27T11:14:38.964Z,7.36
2022-12-27T11:16:41.690Z,7.53
2022-12-27T11:18:52.187Z,7.85
2022-12-27T11:20:58.040Z,8.24
2022-12-27T11:23:10.922Z,9.25
2022-12-27T11:25:15.149Z,9.72
2022-12-27T11:27:23.302Z,10.84
2022-12-27T11:29:28.884Z,10.63
2022-12-27T11:31:41.880Z,10.71
2022-12-27T11:33:51.606Z,10.65
2022-12-27T11:35:58.166Z,11.50
2022-12-27T11:38:00.460Z,10.79
2022-12-27T11:40:34.743Z,10.74
2022-12-27T11:42:46.631Z,10.89
2022-12-27T11:45:00.904Z,10.23
2022-12-27T11:47:44.210Z,10.18
2022-12-27T11:49:53.707Z,10.70
2022-12-27T11:52:24.825Z,10.66
2022-12-27T11:54:55.339Z,11.12
2022-12-27T11:57:20.988Z,11.25
2022-12-27T11:59:59.331Z,11.36
2022-12-27T12:02:28.679Z,11.13
2022-12-27T12:04:49.719Z,10.25
2022-12-27T12:07:29.249Z,9.61
2022-12-27T12:09:49.321Z,9.95
2022-12-27T12:11:55.530Z,10.30
2022-12-27T12:14:18.917Z,10.12
2022-12-27T12:16:30.040Z,9.86
2022-12-27T12:18:45.343Z,10.10
2022-12-27T12:20:59.594Z,9.77
2022-12-27T12:23:49.643Z,9.69
2022-12-27T12:26:13.393Z,8.99
2022-12-27T12:28:57.765Z,8.58
2022-12-27T12:31:13.908Z,9.13
2022-12-27T12:33:41.710Z,9.06
2022-12-27T12:35:50.121Z,9.08
2022-12-27T12:38:10.297Z,8.78
2022-12-27T12:40:32.674Z,8.71
2022-12-27T12:42:55.217Z,8.43
2022-12-27T12:45:00.452Z,8.79
2022-12-27T12:47:51.607Z,8.79
2022-12-27T12:50:13.320Z,8.30
2022-12-27T12:52:27.181Z,8.31
2022-12-27T12:54:46.968Z,8.47
2022-12-27T12:56:52.145Z,8.07
2022-12-27T12:59:19.098Z,7.58
2022-12-27T13:01:36.677Z,7.36
2022-12-27T13:04:16.783Z,7.00
2022-12-27T13:06:27.508Z,6.77
2022-12-27T13:08:42.556Z,6.56
2022-12-27T13:10:57.533Z,6.59
2022-12-27T13:13:21.570Z,6.58
2022-12-27T13:15:42.495Z,6.52
2022-12-27T13:18:05.034Z,6.46
2022-12-27T13:20:41.591Z,6.29
2022-12-27T13:22:59.696Z,6.31
2022-12-27T13:25:35.790Z,6.23
2022-12-27T13:27:48.956Z,6.15
2022-12-27T13:30:17.774Z,6.12
2022-12-27T13:32:50.971Z,6.14
2022-12-27T13:35:19.898Z,6.13
2022-12-27T13:37:42.937Z,6.13
2022-12-27T13:40:07.379Z,6.05
2022-12-27T13:42:10.007Z,6.04
2022-12-27T13:44:40.107Z,5.95
2022-12-27T13:47:19.534Z,5.97
2022-12-27T13:50:13.291Z,5.92
2022-12-27T13:52:40.428Z,5.83
2022-12-27T13:55:02.783Z,5.82
2022-12-27T13:57:14.062Z,5.89
2022-12-27T13:59:36.760Z,5.83
2022-12-27T14:01:52.880Z,5.77
2022-12-27T14:04:05.510Z,5.73
2022-12-27T14:06:26.841Z,5.72
2022-12-27T14:08:50.904Z,5.71
2022-12-27T14:11:00.809Z,5.49
2022-12-27T14:13:03.838Z,5.49
2022-12-27T14:15:12.821Z,5.46
2022-12-27T14:17:42.672Z,5.42
2022-12-27T14:19:52.138Z,5.36
2022-12-27T14:22:19.366Z,5.33
2022-12-27T14:24:40.716Z,5.30
2022-12-27T14:27:25.958Z,5.33
2022-12-27T14:29:40.974Z,5.24
2022-12-27T14:32:08.038Z,5.25
2022-12-27T14:34:34.345Z,5.27
2022-12-27T14:36:43.057Z,5.19
2022-12-27T14:39:16.305Z,5.26
2022-12-27T14:41:34.244Z,5.21
2022-12-27T14:43:42.752Z,5.15
2022-12-27T14:46:03.912Z,5.09
2022-12-27T14:48:25.146Z,5.07
2022-12-27T14:50:45.279Z,5.00
2022-12-27T14:52:50.462Z,4.93
2022-12-27T14:55:09.573Z,4.98
2022-12-27T14:57:28.700Z,4.95
2022-12-27T15:00:08.969Z,4.91
2022-12-27T15:02:34.136Z,4.96
2022-12-27T15:04:49.766Z,4.89
2022-12-27T15:07:11.233Z,4.92
2022-12-27T15:09:23.141Z,4.88
2022-12-27T15:11:43.762Z,4.92
2022-12-27T15:14:22.955Z,4.77
2022-12-27T15:16:34.842Z,4.80
2022-12-27T15:18:40.153Z,4.86
2022-12-27T15:21:30.265Z,4.80
2022-12-27T15:23:47.172Z,4.82
2022-12-27T15:26:19.091Z,4.81
2022-12-27T15:28:42.411Z,4.78
2022-12-27T15:30:53.044Z,4.71
2022-12-27T15:33:09.638Z,4.65
2022-12-27T15:35:47.360Z,4.60
2022-12-27T15:38:14.362Z,4.58
2022-12-27T15:40:32.128Z,4.62
2022-12-27T15:42:48.505Z,4.61
2022-12-27T15:45:10.354Z,4.59
2022-12-27T15:47:31.472Z,4.54
2022-12-27T15:49:48.750Z,4.68
2022-12-27T15:52:17.523Z,4.45
2022-12-27T15:54:25.479Z,4.51
2022-12-27T15:57:09.702Z,4.45
2022-12-27T15:59:31.152Z,4.31
2022-12-27T16:01:35.298Z,4.35
2022-12-27T16:03:39.505Z,4.30
2022-12-27T16:05:51.932Z,4.26
2022-12-27T16:08:00.111Z,4.25
2022-12-27T16:10:33.455Z,4.29
2022-12-27T16:12:39.311Z,4.29
2022-12-27T16:14:43.718Z,4.16
2022-12-27T16:16:54.646Z,4.11
2022-12-27T16:19:06.700Z,4.20
2022-12-27T16:21:23.154Z,4.18
2022-12-27T16:23:30.739Z,4.17
2022-12-27T16:25:39.728Z,4.17
2022-12-27T16:27:43.524Z,4.16
2022-12-27T16:29:46.333Z,4.17
2022-12-27T16:31:50.705Z,4.22
2022-12-27T16:33:56.205Z,4.21
2022-12-27T16:36:36.572Z,4.13
2022-12-27T16:39:00.601Z,4.06
2022-12-27T16:41:24.589Z,4.07
2022-12-27T16:43:48.701Z,4.02
2022-12-27T16:46:18.264Z,4.02
2022-12-27T16:48:42.752Z,3.97
2022-12-27T16:51:03.843Z,3.91
2022-12-27T16:53:09.186Z,3.91
2022-12-27T16:55:23.588Z,3.94
2022-12-27T16:57:26.309Z,3.88
2022-12-27T16:59:56.913Z,3.91
2022-12-27T17:02:00.002Z,3.92
2022-12-27T17:04:03.802Z,3.97
2022-12-27T17:06:35.506Z,3.95
2022-12-27T17:08:38.008Z,4.00
2022-12-27T17:10:52.736Z,3.98
2022-12-27T17:13:13.777Z,3.99
2022-12-27T17:15:16.646Z,4.02
2022-12-27T17:17:23.212Z,4.03
2022-12-27T17:19:47.626Z,4.03
2022-12-27T17:21:58.644Z,4.07
2022-12-27T17:24:16.622Z,4.05
2022-12-27T17:26:36.341Z,4.08
2022-12-27T17:28:56.550Z,4.06
2022-12-27T17:31:24.384Z,4.05
2022-12-27T17:33:26.698Z,4.05
2022-12-27T17:35:41.489Z,4.03
2022-12-27T17:37:56.475Z,4.05
2022-12-27T17:40:29.065Z,4.03
2022-12-27T17:42:53.519Z,3.98
2022-12-27T17:45:49.479Z,3.96
2022-12-27T17:48:10.283Z,3.99
2022-12-27T17:50:16.063Z,3.96
2022-12-27T17:52:39.779Z,3.99
2022-12-27T17:55:01.406Z,3.95
2022-12-27T17:57:29.970Z,3.99
2022-12-27T17:59:38.604Z,4.00
2022-12-27T18:01:47.603Z,3.94
2022-12-27T18:03:50.814Z,4.01
2022-12-27T18:05:53.447Z,3.97
2022-12-27T18:08:07.472Z,3.97
2022-12-27T18:10:17.682Z,4.01
2022-12-27T18:12:34.911Z,3.99
2022-12-27T18:14:37.650Z,3.93
2022-12-27T18:16:41.255Z,3.96
2022-12-27T18:18:50.480Z,4.01
2022-12-27T18:20:59.825Z,4.06
2022-12-27T18:23:02.509Z,4.04
2022-12-27T18:25:28.691Z,3.95
2022-12-27T18:27:31.554Z,3.93
2022-12-27T18:29:34.699Z,3.95
2022-12-27T18:31:49.474Z,4.06
2022-12-27T18:34:22.617Z,4.09
2022-12-27T18:36:39.659Z,3.86
2022-12-27T18:38:46.970Z,4.15
2022-12-27T18:41:21.601Z,3.98
2022-12-27T18:43:25.193Z,3.83
2022-12-27T18:45:30.549Z,4.03
2022-12-27T18:47:46.402Z,4.17
2022-12-27T18:50:01.417Z,4.05
2022-12-27T18:52:22.657Z,4.14
2022-12-27T18:54:28.085Z,3.92
2022-12-27T18:56:33.395Z,3.90
2022-12-27T18:58:36.330Z,3.93
2022-12-27T19:00:51.659Z,3.98
2022-12-27T19:03:11.715Z,4.04
2022-12-27T19:05:26.568Z,3.93
2022-12-27T19:07:34.055Z,3.95
2022-12-27T19:09:42.572Z,3.93
2022-12-27T19:11:55.736Z,3.89
2022-12-27T19:14:00.445Z,3.99
2022-12-27T19:16:03.803Z,3.88
2022-12-27T19:18:36.100Z,3.85
2022-12-27T19:20:41.234Z,3.75
2022-12-27T19:22:53.496Z,3.85
2022-12-27T19:25:01.597Z,3.94
2022-12-27T19:27:24.554Z,3.78
2022-12-27T19:29:35.219Z,3.73
2022-12-27T19:31:44.930Z,3.84
2022-12-27T19:33:58.786Z,3.93
2022-12-27T19:36:07.367Z,4.08
2022-12-27T19:38:20.659Z,4.02
2022-12-27T19:40:23.710Z,3.89
2022-12-27T19:42:30.803Z,3.81
2022-12-27T19:44:34.307Z,3.74
2022-12-27T19:46:36.998Z,3.69
2022-12-27T19:48:41.100Z,3.68
2022-12-27T19:50:49.565Z,3.64
2022-12-27T19:52:52.836Z,3.58
2022-12-27T19:55:03.095Z,3.56
2022-12-27T19:57:05.732Z,3.60
2022-12-27T19:59:15.688Z,3.62
2022-12-27T20:01:19.466Z,3.80
2022-12-27T20:03:22.733Z,3.77
2022-12-27T20:06:11.191Z,3.78
2022-12-27T20:07:48.856Z,3.70
2022-12-27T20:09:52.520Z,3.68
2022-12-27T20:11:55.076Z,3.51
2022-12-27T20:13:57.874Z,3.31
2022-12-27T20:16:01.169Z,3.15
2022-12-27T20:18:03.814Z,3.13
2022-12-27T20:20:07.091Z,3.15
2022-12-27T20:22:10.605Z,3.02
2022-12-27T20:24:14.185Z,2.94
2022-12-27T20:26:20.336Z,3.17
2022-12-27T20:28:23.262Z,3.13
2022-12-27T20:30:26.284Z,3.07
2022-12-27T20:32:28.851Z,2.91
2022-12-27T20:34:31.575Z,2.84
2022-12-27T20:36:34.356Z,2.67
2022-12-27T20:38:40.202Z,2.72
2022-12-27T20:40:43.191Z,2.95
2022-12-27T20:42:45.892Z,3.01
2022-12-27T20:44:48.407Z,3.11
2022-12-27T20:46:52.308Z,3.14
2022-12-27T20:48:56.266Z,3.17
2022-12-27T20:50:58.657Z,3.04
2022-12-27T20:53:01.731Z,3.02
2022-12-27T20:55:12.123Z,2.83
2022-12-27T20:57:14.683Z,2.63
2022-12-27T20:59:17.489Z,2.43
2022-12-27T21:01:25.935Z,2.43
2022-12-27T21:03:28.732Z,2.55
2022-12-27T21:05:32.207Z,2.48
2022-12-27T21:07:35.098Z,2.41
2022-12-27T21:09:37.595Z,2.40
2022-12-27T21:11:40.529Z,2.42
2022-12-27T21:13:44.066Z,2.42
2022-12-27T21:15:46.603Z,2.38
2022-12-27T21:17:49.259Z,2.35
2022-12-27T21:19:51.801Z,2.38
2022-12-27T21:21:54.337Z,2.21
2022-12-27T21:23:58.120Z,2.26
2022-12-27T21:26:09.678Z,2.26
2022-12-27T21:28:12.055Z,2.15
2022-12-27T21:30:14.836Z,2.15
2022-12-27T21:32:17.969Z,2.18
2022-12-27T21:34:20.812Z,2.21
2022-12-27T21:36:25.994Z,2.20
2022-12-27T21:38:29.101Z,2.28
2022-12-27T21:40:31.440Z,2.28
2022-12-27T21:42:34.118Z,2.35
2022-12-27T21:44:38.874Z,2.31
2022-12-27T21:46:42.547Z,2.30
2022-12-27T21:48:45.979Z,2.40
2022-12-27T21:50:49.133Z,2.49
2022-12-27T21:52:51.428Z,2.59
2022-12-27T21:54:54.163Z,2.57
2022-12-27T21:56:56.471Z,2.70
2022-12-27T21:59:00.244Z,2.62
2022-12-27T22:01:08.923Z,2.50
2022-12-27T22:03:12.039Z,2.61
2022-12-27T22:05:14.544Z,2.69
2022-12-27T22:07:17.007Z,2.63
2022-12-27T22:09:19.888Z,2.63
2022-12-27T22:11:23.468Z,2.82
2022-12-27T22:13:25.767Z,2.82
2022-12-27T22:15:28.419Z,3.02
2022-12-27T22:17:30.799Z,2.92
2022-12-27T22:19:33.079Z,2.99
2022-12-27T22:21:37.310Z,2.97
2022-12-27T22:23:42.522Z,2.98
2022-12-27T22:25:45.617Z,3.12
2022-12-27T22:27:48.199Z,3.14
2022-12-27T22:29:50.526Z,3.00
2022-12-27T22:31:53.012Z,2.87
2022-12-27T22:33:55.655Z,2.94
2022-12-27T22:36:09.052Z,2.93
2022-12-27T22:38:11.695Z,2.99
2022-12-27T22:40:25.869Z,3.04
2022-12-27T22:42:36.620Z,3.16
2022-12-27T22:44:38.970Z,3.14
2022-12-27T22:49:07.610Z,2.86
2022-12-27T22:51:15.832Z,2.71
2022-12-27T22:53:18.421Z,2.67
2022-12-27T22:55:20.863Z,2.77
2022-12-27T22:57:23.327Z,2.65
2022-12-27T22:59:26.156Z,2.63
2022-12-27T23:01:30.841Z,2.59
2022-12-27T23:03:33.223Z,2.55
2022-12-27T23:05:35.894Z,2.58
2022-12-27T23:08:05.348Z,2.60
2022-12-27T23:10:00.680Z,2.59
2022-12-27T23:12:03.468Z,2.45
2022-12-27T23:14:11.760Z,2.43
2022-12-27T23:16:14.096Z,2.52
2022-12-27T23:18:16.814Z,2.43
2022-12-27T23:20:19.239Z,2.55
2022-12-27T23:22:21.559Z,2.43
2022-12-27T23:24:24.184Z,2.34
2022-12-27T23:26:27.159Z,2.37
2022-12-27T23:28:29.707Z,2.43
2022-12-27T23:30:32.325Z,2.48
2022-12-27T23:32:34.599Z,2.40
2022-12-27T23:34:36.952Z,2.34
2022-12-27T23:36:39.686Z,2.39
2022-12-27T23:38:43.318Z,2.33
2022-12-27T23:40:45.630Z,2.20
2022-12-27T23:42:48.471Z,2.16
2022-12-27T23:44:52.193Z,2.04
2022-12-27T23:46:54.560Z,1.93
2022-12-27T23:49:02.569Z,1.90
2022-12-27T23:51:05.190Z,1.75
2022-12-27T23:53:07.599Z,1.71
